This is the latest recevied weather packets stored in our database for station/object K6TTR. If no packets are shown the sender has not sent any weather packets the latest 1 day(s).
| Time | Temp. | Humidity | Pressure | Rain* | Wind** | Luminosity | Snow |
|---|---|---|---|---|---|---|---|
| 1778017113 | 20° C | 37% | 1013.7 hPa | 0 mm | 1.79 m/s, 315° | 304 W/m² | - |
| 1778016821 | 20° C | 36% | 1013.7 hPa | 0 mm | 1.34 m/s, 343° | 1137 W/m² | - |
| 1778016528 | 20° C | 37% | 1013.8 hPa | 0 mm | 2.24 m/s, 344° | 253 W/m² | - |
| 1778016211 | 20° C | 39% | 1013.7 hPa | 0 mm | 0.89 m/s, 5° | 893 W/m² | - |
| 1778015915 | 20° C | 43% | 1013.6 hPa | 0 mm | 0 m/s | 893 W/m² | - |
| 1778015620 | 20° C | 40% | 1013.7 hPa | 0 mm | 1.79 m/s, 306° | 211 W/m² | - |
| 1778015324 | 19.44° C | 39% | 1013.5 hPa | 0 mm | 0 m/s | 626 W/m² | - |
| 1778015029 | 18.89° C | 44% | 1013.7 hPa | 0 mm | 0.89 m/s, 252° | 1136 W/m² | - |
| 1778014714 | 18.89° C | 46% | 1013.8 hPa | 0 mm | 0 m/s | 285 W/m² | - |
| 1778014419 | 18.89° C | 45% | 1013.9 hPa | 0 mm | 0 m/s | 230 W/m² | - |
| 1778014123 | 18.89° C | 45% | 1013.7 hPa | 0 mm | 0.89 m/s, 252° | 229 W/m² | - |
| 1778013827 | 18.89° C | 43% | 1013.7 hPa | 0 mm | 0 m/s | 232 W/m² | - |
| 1778013513 | 19.44° C | 42% | 1013.8 hPa | 0 mm | 0 m/s | 176 W/m² | - |
| 1778013219 | 18.89° C | 45% | 1013.7 hPa | 0 mm | 0 m/s | 239 W/m² | - |
| 1778012925 | 18.89° C | 44% | 1013.7 hPa | 0 mm | 0 m/s | 229 W/m² | - |
| 1778012631 | 18.89° C | 46% | 1013.7 hPa | 0 mm | 0 m/s | 141 W/m² | - |
| 1778012317 | 18.89° C | 44% | 1013.6 hPa | 0 mm | 0 m/s | 174 W/m² | - |
| 1778012021 | 18.89° C | 47% | 1013.6 hPa | 0 mm | 0 m/s | 165 W/m² | - |
| 1778011727 | 18.89° C | 46% | 1013 hPa | 0 mm | 0.45 m/s, 216° | 195 W/m² | - |
| 1778011413 | 18.89° C | 48% | 1013 hPa | 0 mm | 1.79 m/s, 215° | 1139 W/m² | - |
| 1778011118 | 18.89° C | 50% | 1013 hPa | 0 mm | 1.79 m/s, 279° | 1187 W/m² | - |
| 1778010821 | 18.33° C | 45% | 1013.1 hPa | 0 mm | 0 m/s | 1132 W/m² | - |
| 1778010525 | 18.89° C | 48% | 1013.1 hPa | 0 mm | 0.89 m/s, 304° | 322 W/m² | - |
| 1778010227 | 18.33° C | 44% | 1013.1 hPa | 0 mm | 0 m/s | 1151 W/m² | - |
| 1778009913 | 18.33° C | 47% | 1013.3 hPa | 0 mm | 0 m/s | 195 W/m² | - |
* Rain latest hour (hover to see other rain measurements)
** Current wind speed in m/s (hover to see current wind gust speed)